createdAt,value
2023-05-10T00:00:59.510Z,14.95
2023-05-10T00:01:57.745Z,14.95
2023-05-10T00:02:57.267Z,14.93
2023-05-10T00:03:55.677Z,14.94
2023-05-10T00:04:55.996Z,14.93
2023-05-10T00:05:56.496Z,14.94
2023-05-10T00:06:56.168Z,14.94
2023-05-10T00:07:56.269Z,14.91
2023-05-10T00:08:58.904Z,14.94
2023-05-10T00:09:56.789Z,14.91
2023-05-10T00:10:57.794Z,14.91
2023-05-10T00:11:57.018Z,14.88
2023-05-10T00:13:00.581Z,14.90
2023-05-10T00:13:57.398Z,14.88
2023-05-10T00:14:57.546Z,14.88
2023-05-10T00:15:58.827Z,14.88
2023-05-10T00:16:59.182Z,14.88
2023-05-10T00:17:59.285Z,14.88
2023-05-10T00:19:01.168Z,14.86
2023-05-10T00:20:00.818Z,14.83
2023-05-10T00:21:26.263Z,14.83
2023-05-10T00:22:26.526Z,14.83
2023-05-10T00:23:28.963Z,14.81
2023-05-10T00:24:28.169Z,14.80
2023-05-10T00:25:28.367Z,14.78
2023-05-10T00:26:28.162Z,14.80
2023-05-10T00:27:27.783Z,14.74
2023-05-10T00:28:28.624Z,14.72
2023-05-10T00:30:29.079Z,14.69
2023-05-10T00:31:33.408Z,14.68
2023-05-10T00:32:29.233Z,14.67
2023-05-10T00:33:31.079Z,14.64
2023-05-10T00:34:29.723Z,14.62
2023-05-10T00:35:29.973Z,14.62
2023-05-10T00:36:31.544Z,14.60
2023-05-10T00:37:32.204Z,14.62
2023-05-10T00:38:30.447Z,14.64
2023-05-10T00:39:33.164Z,14.64
2023-05-10T00:40:32.753Z,14.64
2023-05-10T00:41:31.984Z,14.65
2023-05-10T00:42:32.653Z,14.65
2023-05-10T00:43:31.516Z,14.67
2023-05-10T00:44:33.172Z,14.68
2023-05-10T00:45:33.907Z,14.68
2023-05-10T00:46:32.561Z,14.69
2023-05-10T00:47:32.512Z,14.72
2023-05-10T00:48:34.014Z,14.72
2023-05-10T00:49:34.168Z,14.74
2023-05-10T00:50:34.235Z,14.75
2023-05-10T00:51:39.019Z,14.78
2023-05-10T00:52:33.891Z,14.78
2023-05-10T00:53:34.176Z,14.81
2023-05-10T00:54:35.727Z,14.83
2023-05-10T00:55:34.409Z,14.86
2023-05-10T00:56:34.785Z,14.87
2023-05-10T00:57:35.159Z,14.86
2023-05-10T00:58:37.889Z,14.88
2023-05-10T00:59:39.124Z,14.86
2023-05-10T01:00:38.842Z,14.86
2023-05-10T01:01:39.479Z,14.87
2023-05-10T01:02:37.468Z,14.86
2023-05-10T01:03:38.131Z,14.87
2023-05-10T01:04:37.681Z,14.88
2023-05-10T01:05:36.846Z,14.88
2023-05-10T01:06:37.030Z,14.84
2023-05-10T01:07:38.045Z,14.83
2023-05-10T01:08:37.204Z,14.81
2023-05-10T01:09:40.029Z,14.81
2023-05-10T01:10:37.765Z,14.80
2023-05-10T01:11:40.123Z,14.78
2023-05-10T01:12:38.406Z,14.78
2023-05-10T01:13:48.043Z,14.75
2023-05-10T01:14:40.723Z,14.75
2023-05-10T01:15:45.907Z,14.75
2023-05-10T01:16:39.341Z,14.74
2023-05-10T01:17:39.665Z,14.75
2023-05-10T01:18:40.786Z,14.74
2023-05-10T01:19:40.936Z,14.72
2023-05-10T01:20:41.220Z,14.71
2023-05-10T01:21:42.932Z,14.71
2023-05-10T01:22:41.047Z,14.69
2023-05-10T01:24:41.509Z,14.67
2023-05-10T01:25:42.096Z,14.65
2023-05-10T01:26:44.411Z,14.64
2023-05-10T01:27:43.204Z,14.61
2023-05-10T01:28:44.392Z,14.60
2023-05-10T01:29:42.128Z,14.57
2023-05-10T01:30:43.804Z,14.54
2023-05-10T01:31:44.538Z,14.52
2023-05-10T01:32:42.824Z,14.50
2023-05-10T01:34:43.143Z,14.47
2023-05-10T01:35:45.336Z,14.49
2023-05-10T01:36:44.541Z,14.47
2023-05-10T01:37:43.817Z,14.46
2023-05-10T01:38:45.485Z,14.47
2023-05-10T01:39:44.330Z,14.47
2023-05-10T01:40:44.516Z,14.47
2023-05-10T01:41:44.734Z,14.46
2023-05-10T01:42:45.002Z,14.46
2023-05-10T01:43:51.520Z,14.46
2023-05-10T01:44:45.315Z,14.47
2023-05-10T01:45:45.536Z,14.47
2023-05-10T01:46:46.747Z,14.52
2023-05-10T01:47:47.655Z,14.53
2023-05-10T01:48:46.395Z,14.54
2023-05-10T01:49:48.018Z,14.53
2023-05-10T01:50:47.909Z,14.47
2023-05-10T01:51:49.193Z,14.44
2023-05-10T01:52:51.000Z,14.43
2023-05-10T01:53:53.286Z,14.39
2023-05-10T01:54:49.581Z,14.39
2023-05-10T01:55:49.204Z,14.38
2023-05-10T01:56:48.375Z,14.37
2023-05-10T01:57:48.790Z,14.35
2023-05-10T01:58:48.613Z,14.32
2023-05-10T01:59:50.837Z,14.31
2023-05-10T02:00:51.163Z,14.28
2023-05-10T02:01:49.578Z,14.27
2023-05-10T02:03:06.847Z,14.28
2023-05-10T02:03:55.244Z,14.27
2023-05-10T02:04:50.713Z,14.25
2023-05-10T02:05:50.948Z,14.24
2023-05-10T02:06:51.438Z,14.20
2023-05-10T02:07:51.597Z,14.19
2023-05-10T02:08:51.668Z,14.20
2023-05-10T02:09:52.794Z,14.19
2023-05-10T02:10:51.631Z,14.19
2023-05-10T02:11:54.815Z,14.21
2023-05-10T02:12:56.380Z,14.20
2023-05-10T02:14:11.273Z,14.20
2023-05-10T02:14:54.452Z,14.16
2023-05-10T02:15:54.267Z,14.13
2023-05-10T02:16:53.903Z,14.13
2023-05-10T02:17:54.548Z,14.12
2023-05-10T02:18:55.267Z,14.06
2023-05-10T02:19:53.676Z,13.99
2023-05-10T02:20:56.432Z,13.95
2023-05-10T02:21:54.220Z,13.89
2023-05-10T02:22:54.646Z,13.84
2023-05-10T02:23:56.353Z,13.84
2023-05-10T02:24:56.051Z,13.81
2023-05-10T02:25:55.339Z,13.80
2023-05-10T02:26:55.479Z,13.79
2023-05-10T02:27:57.573Z,13.73
2023-05-10T02:28:58.297Z,13.73
2023-05-10T02:29:56.923Z,13.71
2023-05-10T02:30:59.282Z,13.70
2023-05-10T02:31:56.894Z,13.69
2023-05-10T02:33:00.478Z,13.69
2023-05-10T02:33:58.783Z,13.69
2023-05-10T02:34:56.927Z,13.69
2023-05-10T02:35:58.469Z,13.65
2023-05-10T02:36:57.088Z,13.63
2023-05-10T02:37:59.229Z,13.63
2023-05-10T02:38:57.392Z,13.63
2023-05-10T02:39:58.526Z,13.65
2023-05-10T02:40:59.630Z,13.65
2023-05-10T02:41:57.755Z,13.62
2023-05-10T02:42:59.573Z,13.61
2023-05-10T02:44:02.967Z,13.61
2023-05-10T02:45:01.267Z,13.58
2023-05-10T02:46:00.407Z,13.59
2023-05-10T02:47:01.304Z,13.58
2023-05-10T02:47:59.054Z,13.56
2023-05-10T02:48:59.273Z,13.55
2023-05-10T02:49:59.598Z,13.55
2023-05-10T02:51:01.298Z,13.54
2023-05-10T02:51:59.992Z,13.51
2023-05-10T02:53:03.162Z,13.49
2023-05-10T02:54:02.438Z,13.43
2023-05-10T02:55:00.829Z,13.40
2023-05-10T02:56:01.990Z,13.36
2023-05-10T02:57:01.286Z,13.33
2023-05-10T02:58:01.487Z,13.33
2023-05-10T02:59:01.695Z,13.32
2023-05-10T03:00:01.914Z,13.30
2023-05-10T03:01:04.706Z,13.32
2023-05-10T03:02:04.421Z,13.30
2023-05-10T03:03:03.536Z,13.32
2023-05-10T03:04:04.472Z,13.33
2023-05-10T03:05:03.241Z,13.36
2023-05-10T03:06:03.608Z,13.37
2023-05-10T03:07:05.200Z,13.37
2023-05-10T03:08:04.083Z,13.38
2023-05-10T03:09:05.402Z,13.38
2023-05-10T03:10:05.557Z,13.38
2023-05-10T03:11:05.466Z,13.41
2023-05-10T03:12:05.551Z,13.47
2023-05-10T03:13:09.191Z,13.47
2023-05-10T03:14:08.830Z,13.47
2023-05-10T03:15:06.952Z,13.47
2023-05-10T03:16:06.547Z,13.49
2023-05-10T03:17:15.601Z,13.51
2023-05-10T03:18:08.792Z,13.51
2023-05-10T03:19:07.514Z,13.51
2023-05-10T03:20:07.616Z,13.52
2023-05-10T03:21:07.086Z,13.51
2023-05-10T03:22:08.137Z,13.52
2023-05-10T03:23:09.025Z,13.54
2023-05-10T03:24:08.727Z,13.52
2023-05-10T03:25:09.932Z,13.51
2023-05-10T03:26:09.772Z,13.52
2023-05-10T03:27:08.805Z,13.54
2023-05-10T03:28:08.754Z,13.52
2023-05-10T03:29:09.376Z,13.51
2023-05-10T03:30:09.996Z,13.55
2023-05-10T03:31:09.440Z,13.56
2023-05-10T03:32:39.662Z,13.61
2023-05-10T03:33:09.676Z,13.58
2023-05-10T03:34:11.166Z,13.58
2023-05-10T03:35:09.845Z,13.56
2023-05-10T03:36:09.956Z,13.56
2023-05-10T03:37:10.085Z,13.56
2023-05-10T03:38:11.729Z,13.56
2023-05-10T03:39:10.357Z,13.58
2023-05-10T03:40:10.515Z,13.59
2023-05-10T03:41:11.622Z,13.59
2023-05-10T03:42:11.866Z,13.63
2023-05-10T03:43:10.983Z,13.67
2023-05-10T03:44:13.065Z,13.69
2023-05-10T03:45:13.256Z,13.73
2023-05-10T03:46:11.406Z,13.77
2023-05-10T03:47:11.558Z,13.76
2023-05-10T03:48:13.748Z,13.77
2023-05-10T03:49:12.003Z,13.79
2023-05-10T03:50:12.376Z,13.77
2023-05-10T03:51:12.522Z,13.76
2023-05-10T03:52:14.125Z,13.74
2023-05-10T03:53:12.765Z,13.73
2023-05-10T03:54:14.906Z,13.70
2023-05-10T03:55:13.077Z,13.73
2023-05-10T03:56:13.203Z,13.70
2023-05-10T03:57:13.382Z,13.70
2023-05-10T03:58:14.063Z,13.71
2023-05-10T03:59:13.712Z,13.74
2023-05-10T04:00:14.226Z,13.74
2023-05-10T04:01:14.968Z,13.70
2023-05-10T04:03:15.577Z,13.67
2023-05-10T04:04:14.332Z,13.65
2023-05-10T04:05:14.562Z,13.65
2023-05-10T04:06:16.667Z,13.65
2023-05-10T04:07:15.819Z,13.67
2023-05-10T04:08:18.670Z,13.69
2023-05-10T04:09:15.342Z,13.73
2023-05-10T04:10:15.701Z,13.76
2023-05-10T04:11:16.509Z,13.77
2023-05-10T04:12:18.438Z,13.79
2023-05-10T04:13:18.605Z,13.79
2023-05-10T04:14:16.204Z,13.81
2023-05-10T04:15:17.375Z,13.80
2023-05-10T04:16:16.691Z,13.83
2023-05-10T04:17:17.850Z,13.81
2023-05-10T04:18:16.998Z,13.80
2023-05-10T04:19:18.071Z,13.83
2023-05-10T04:20:17.534Z,13.81
2023-05-10T04:21:21.954Z,13.80
2023-05-10T04:22:20.648Z,13.80
2023-05-10T04:23:19.026Z,13.79
2023-05-10T04:24:19.116Z,13.73
2023-05-10T04:25:18.415Z,13.70
2023-05-10T04:26:19.529Z,13.70
2023-05-10T04:27:19.802Z,13.71
2023-05-10T04:28:18.924Z,13.74
2023-05-10T04:29:19.120Z,13.76
2023-05-10T04:30:21.383Z,13.76
2023-05-10T04:31:21.215Z,13.77
2023-05-10T04:32:39.160Z,13.79
2023-05-10T04:33:20.402Z,13.77
2023-05-10T04:34:22.659Z,13.77
2023-05-10T04:35:20.857Z,13.76
2023-05-10T04:36:21.998Z,13.76
2023-05-10T04:37:21.154Z,13.77
2023-05-10T04:38:21.283Z,13.77
2023-05-10T04:39:22.376Z,13.79
2023-05-10T04:40:21.523Z,13.80
2023-05-10T04:41:22.267Z,13.83
2023-05-10T04:42:23.854Z,13.84
2023-05-10T04:43:22.948Z,13.83
2023-05-10T04:44:23.042Z,13.84
2023-05-10T04:45:22.186Z,13.83
2023-05-10T04:46:24.422Z,13.84
2023-05-10T04:47:22.702Z,13.84
2023-05-10T04:48:23.865Z,13.84
2023-05-10T04:49:23.020Z,13.84
2023-05-10T04:50:23.518Z,13.87
2023-05-10T04:51:23.737Z,13.88
2023-05-10T04:52:36.048Z,13.88
2023-05-10T04:53:27.059Z,13.88
2023-05-10T04:54:24.287Z,13.87
2023-05-10T04:55:26.446Z,13.84
2023-05-10T04:56:24.560Z,13.84
2023-05-10T04:57:24.697Z,13.83
2023-05-10T04:58:25.931Z,13.84
2023-05-10T04:59:25.691Z,13.87
2023-05-10T05:00:27.373Z,13.84
2023-05-10T05:01:27.495Z,13.88
2023-05-10T05:03:27.749Z,13.88
2023-05-10T05:04:26.137Z,13.87
2023-05-10T05:05:26.486Z,13.87
2023-05-10T05:06:28.389Z,13.87
2023-05-10T05:07:27.299Z,13.83
2023-05-10T05:08:32.452Z,13.83
2023-05-10T05:09:27.874Z,13.81
2023-05-10T05:10:28.096Z,13.84
2023-05-10T05:11:30.324Z,13.87
2023-05-10T05:12:31.049Z,13.84
2023-05-10T05:13:30.623Z,13.87
2023-05-10T05:14:30.822Z,13.89
2023-05-10T05:15:32.301Z,13.91
2023-05-10T05:16:30.060Z,13.89
2023-05-10T05:17:29.473Z,13.89
2023-05-10T05:18:30.413Z,13.89
2023-05-10T05:19:34.148Z,13.89
2023-05-10T05:20:30.749Z,13.91
2023-05-10T05:21:31.304Z,13.92
2023-05-10T05:22:31.908Z,13.92
2023-05-10T05:23:33.224Z,13.94
2023-05-10T05:24:31.722Z,13.94
2023-05-10T05:25:33.307Z,13.95
2023-05-10T05:27:32.036Z,13.98
2023-05-10T05:28:32.741Z,13.98
2023-05-10T05:29:32.935Z,13.96
2023-05-10T05:30:33.739Z,13.98
2023-05-10T05:31:36.210Z,13.96
2023-05-10T05:33:36.853Z,13.95
2023-05-10T05:34:34.046Z,13.95
2023-05-10T05:35:32.809Z,13.96
2023-05-10T05:36:34.945Z,13.96
2023-05-10T05:37:52.487Z,13.99
2023-05-10T05:38:35.078Z,13.99
2023-05-10T05:39:36.570Z,14.02
2023-05-10T05:40:34.796Z,14.01
2023-05-10T05:41:36.103Z,13.99
2023-05-10T05:42:39.111Z,13.99
2023-05-10T05:43:38.447Z,13.87
2023-05-10T05:44:35.471Z,13.80
2023-05-10T05:45:45.616Z,13.73
2023-05-10T05:46:35.690Z,13.69
2023-05-10T05:47:37.146Z,13.61
2023-05-10T05:48:36.893Z,13.56
2023-05-10T05:49:37.943Z,13.54
2023-05-10T05:50:36.217Z,13.54
2023-05-10T05:51:36.179Z,13.56
2023-05-10T05:52:50.215Z,13.62
2023-05-10T05:53:44.294Z,13.58
2023-05-10T05:54:41.905Z,13.54
2023-05-10T05:55:37.891Z,13.52
2023-05-10T05:56:38.795Z,13.52
2023-05-10T05:57:38.325Z,13.55
2023-05-10T05:58:38.290Z,13.56
2023-05-10T05:59:37.878Z,13.59
2023-05-10T06:00:44.477Z,13.62
2023-05-10T06:01:40.474Z,13.65
2023-05-10T06:02:43.719Z,13.67
2023-05-10T06:03:38.850Z,13.70
2023-05-10T06:04:39.646Z,13.73
2023-05-10T06:05:38.858Z,13.77
2023-05-10T06:06:46.752Z,13.77
2023-05-10T06:07:43.234Z,13.79
2023-05-10T06:08:41.887Z,13.79
2023-05-10T06:09:41.943Z,13.74
2023-05-10T06:10:43.885Z,13.71
2023-05-10T06:11:42.830Z,13.69
2023-05-10T06:12:42.001Z,13.70
2023-05-10T06:13:41.475Z,13.71
2023-05-10T06:14:41.700Z,13.76
2023-05-10T06:15:41.544Z,13.74
2023-05-10T06:16:44.885Z,13.74
2023-05-10T06:17:43.655Z,13.77
2023-05-10T06:18:42.627Z,13.79
2023-05-10T06:20:57.608Z,13.74
2023-05-10T06:21:43.584Z,13.77
2023-05-10T06:22:57.519Z,13.84
2023-05-10T06:23:45.453Z,13.88
2023-05-10T06:24:45.642Z,13.87
2023-05-10T06:25:47.552Z,13.88
2023-05-10T06:26:54.359Z,13.89
2023-05-10T06:27:46.501Z,13.92
2023-05-10T06:28:46.438Z,13.92
2023-05-10T06:29:46.609Z,13.95
2023-05-10T06:30:50.567Z,13.95
2023-05-10T06:31:52.324Z,13.92
2023-05-10T06:32:53.091Z,13.91
2023-05-10T06:33:46.841Z,13.91
2023-05-10T06:34:57.074Z,13.89
2023-05-10T06:35:48.580Z,13.92
2023-05-10T06:36:47.643Z,13.96
2023-05-10T06:37:50.252Z,13.98
2023-05-10T06:38:48.454Z,14.01
2023-05-10T06:39:48.232Z,14.04
2023-05-10T06:40:50.343Z,14.09
2023-05-10T06:41:52.174Z,14.04
2023-05-10T06:43:55.913Z,13.99
2023-05-10T06:44:15.743Z,13.88
2023-05-10T06:45:14.635Z,13.71
2023-05-10T06:46:15.926Z,13.63
2023-05-10T06:47:18.601Z,13.62
2023-05-10T06:49:22.762Z,13.65
2023-05-10T06:50:17.676Z,13.65
2023-05-10T06:51:17.688Z,13.70
2023-05-10T06:52:16.608Z,13.73
2023-05-10T06:53:16.863Z,13.79
2023-05-10T06:54:19.106Z,13.88
2023-05-10T06:55:18.654Z,13.92
2023-05-10T06:56:18.012Z,13.96
2023-05-10T06:57:30.628Z,13.98
2023-05-10T06:58:18.766Z,14.02
2023-05-10T06:59:18.853Z,14.07
2023-05-10T07:00:20.440Z,14.09
2023-05-10T07:01:20.160Z,14.13
2023-05-10T07:02:19.750Z,14.14
2023-05-10T07:03:19.413Z,14.10
2023-05-10T07:04:20.050Z,14.01
2023-05-10T07:05:21.229Z,13.91
2023-05-10T07:06:33.009Z,13.83
2023-05-10T07:07:21.037Z,13.80
2023-05-10T07:08:21.410Z,13.81
2023-05-10T07:09:23.321Z,13.87
2023-05-10T07:10:23.660Z,13.89
2023-05-10T07:12:28.493Z,13.92
2023-05-10T07:12:57.769Z,13.96
2023-05-10T07:13:51.313Z,13.94
2023-05-10T07:14:46.964Z,13.88
2023-05-10T07:15:49.493Z,13.87
2023-05-10T07:16:49.992Z,13.84
2023-05-10T07:17:47.608Z,13.89
2023-05-10T07:18:48.120Z,13.91
2023-05-10T07:19:47.826Z,13.84
2023-05-10T07:20:48.198Z,13.83
2023-05-10T07:21:47.682Z,13.88
2023-05-10T07:22:48.892Z,13.94
2023-05-10T07:23:49.520Z,13.99
2023-05-10T07:24:49.463Z,13.99
2023-05-10T07:25:49.472Z,13.96
2023-05-10T07:26:50.170Z,13.96
2023-05-10T07:27:50.388Z,13.95
2023-05-10T07:28:50.435Z,13.94
2023-05-10T07:29:52.933Z,13.95
2023-05-10T07:30:53.057Z,13.99
2023-05-10T07:31:52.035Z,14.01
2023-05-10T07:32:52.731Z,13.99
2023-05-10T07:35:11.535Z,14.01
2023-05-10T07:35:30.523Z,14.10
2023-05-10T07:36:30.710Z,14.17
2023-05-10T07:37:30.077Z,14.27
2023-05-10T07:38:30.954Z,14.32
2023-05-10T07:39:31.356Z,14.38
2023-05-10T07:40:30.999Z,14.47
2023-05-10T07:41:31.698Z,14.53
2023-05-10T07:42:58.597Z,14.61
2023-05-10T07:43:31.115Z,14.60
2023-05-10T07:44:32.535Z,14.57
2023-05-10T07:45:32.183Z,14.61
2023-05-10T07:46:34.791Z,14.53
2023-05-10T07:47:32.253Z,14.35
2023-05-10T07:48:33.180Z,14.17
2023-05-10T07:49:34.689Z,14.13
2023-05-10T07:50:34.419Z,14.10
2023-05-10T07:51:33.958Z,14.02
2023-05-10T07:52:34.095Z,14.02
2023-05-10T07:53:34.180Z,13.99
2023-05-10T07:54:34.460Z,14.04
2023-05-10T07:55:34.630Z,14.07
2023-05-10T07:56:34.880Z,14.13
2023-05-10T07:57:35.115Z,14.20
2023-05-10T07:58:35.285Z,14.28
2023-05-10T07:59:34.793Z,14.28
2023-05-10T08:00:37.621Z,14.28
2023-05-10T08:01:37.475Z,14.28
2023-05-10T08:02:36.712Z,14.24
2023-05-10T08:03:35.807Z,14.19
2023-05-10T08:04:36.577Z,14.16
2023-05-10T08:05:40.240Z,14.19
2023-05-10T08:06:37.125Z,14.24
2023-05-10T08:07:51.499Z,14.27
2023-05-10T08:08:37.838Z,14.31
2023-05-10T08:09:37.396Z,14.38
2023-05-10T08:10:39.201Z,14.42
2023-05-10T08:11:43.824Z,14.44
2023-05-10T08:12:37.881Z,14.42
2023-05-10T08:13:40.289Z,14.39
2023-05-10T08:14:40.529Z,14.28
2023-05-10T08:15:41.082Z,14.25
2023-05-10T08:16:39.879Z,14.28
2023-05-10T08:17:43.980Z,14.29
2023-05-10T08:18:41.158Z,14.34
2023-05-10T08:19:39.067Z,14.38
2023-05-10T08:20:43.301Z,14.46
2023-05-10T08:22:12.561Z,14.50
2023-05-10T08:22:46.787Z,14.57
2023-05-10T08:23:51.100Z,14.60
2023-05-10T08:24:40.340Z,14.65
2023-05-10T08:25:43.747Z,14.71
2023-05-10T08:26:42.358Z,14.62
2023-05-10T08:27:41.874Z,14.64
2023-05-10T08:28:45.155Z,14.68
2023-05-10T08:29:49.996Z,14.71
2023-05-10T08:30:44.705Z,14.83
2023-05-10T08:31:43.455Z,14.90
2023-05-10T08:32:49.713Z,14.88
2023-05-10T08:33:45.333Z,14.86
2023-05-10T08:34:43.667Z,14.88
2023-05-10T08:35:44.683Z,14.88
2023-05-10T08:36:58.538Z,14.88
2023-05-10T08:37:42.898Z,14.83
2023-05-10T08:38:59.595Z,14.87
2023-05-10T08:39:45.966Z,14.91
2023-05-10T08:41:59.904Z,14.86
2023-05-10T08:43:47.490Z,14.84
2023-05-10T08:44:46.304Z,14.83
2023-05-10T08:45:47.244Z,14.84
2023-05-10T08:46:45.686Z,14.87
2023-05-10T08:47:47.491Z,14.86
2023-05-10T08:48:47.496Z,14.83
2023-05-10T08:49:47.377Z,14.84
2023-05-10T08:50:48.598Z,14.75
2023-05-10T08:51:48.038Z,14.72
2023-05-10T08:52:50.363Z,14.71
2023-05-10T08:53:50.089Z,14.78
2023-05-10T08:55:50.071Z,14.88
2023-05-10T08:57:01.132Z,14.90
2023-05-10T08:57:50.619Z,14.98
2023-05-10T08:58:49.247Z,15.03
2023-05-10T08:59:49.384Z,14.99
2023-05-10T09:00:50.311Z,14.98
2023-05-10T09:01:52.597Z,14.99
2023-05-10T09:02:51.109Z,15.06
2023-05-10T09:03:52.430Z,15.20
2023-05-10T09:05:06.998Z,15.35
2023-05-10T09:05:54.355Z,15.42
2023-05-10T09:07:50.698Z,15.38
2023-05-10T09:08:15.673Z,15.46
2023-05-10T09:09:09.250Z,15.52
2023-05-10T09:10:10.486Z,15.60
2023-05-10T09:11:09.750Z,15.67
2023-05-10T09:12:09.726Z,15.76
2023-05-10T09:13:09.363Z,15.66
2023-05-10T09:14:09.624Z,15.63
2023-05-10T09:15:09.704Z,15.59
2023-05-10T09:16:21.404Z,15.67
2023-05-10T09:17:10.663Z,15.75
2023-05-10T09:18:10.955Z,15.79
2023-05-10T09:19:12.063Z,15.78
2023-05-10T09:20:11.572Z,15.82
2023-05-10T09:21:11.913Z,15.82
2023-05-10T09:22:36.213Z,15.89
2023-05-10T09:23:12.400Z,15.99
2023-05-10T09:24:12.047Z,16.03
2023-05-10T09:25:14.106Z,16.16
2023-05-10T09:26:12.721Z,16.26
2023-05-10T09:27:13.535Z,16.30
2023-05-10T09:28:13.448Z,16.22
2023-05-10T09:29:15.227Z,16.22
2023-05-10T09:30:14.149Z,16.26
2023-05-10T09:31:15.487Z,16.34
2023-05-10T09:32:15.311Z,16.41
2023-05-10T09:33:14.880Z,16.50
2023-05-10T09:34:15.834Z,16.55
2023-05-10T09:35:15.172Z,16.58
2023-05-10T09:36:14.684Z,16.58
2023-05-10T09:37:14.916Z,16.53
2023-05-10T09:38:15.693Z,16.53
2023-05-10T09:39:15.476Z,16.65
2023-05-10T09:40:16.483Z,16.85
2023-05-10T09:41:15.985Z,17.08
2023-05-10T09:42:16.803Z,17.36
2023-05-10T09:43:16.435Z,17.53
2023-05-10T09:44:16.014Z,17.71
2023-05-10T09:45:18.078Z,17.89
2023-05-10T09:46:16.894Z,18.00
2023-05-10T09:47:17.870Z,18.31
2023-05-10T09:48:18.894Z,18.33
2023-05-10T09:49:16.684Z,18.13
2023-05-10T09:50:18.417Z,17.87
2023-05-10T09:51:18.469Z,17.71
2023-05-10T09:52:18.240Z,17.55
2023-05-10T09:53:19.310Z,17.36
2023-05-10T09:54:18.034Z,17.25
2023-05-10T09:55:18.752Z,17.11
2023-05-10T09:56:18.305Z,16.98
2023-05-10T09:57:20.197Z,16.88
2023-05-10T09:58:23.144Z,16.74
2023-05-10T09:59:19.923Z,16.63
2023-05-10T10:00:21.766Z,16.50
2023-05-10T10:01:20.521Z,16.41
2023-05-10T10:02:20.901Z,16.42
2023-05-10T10:03:24.617Z,16.41
2023-05-10T10:04:23.585Z,16.35
2023-05-10T10:05:21.934Z,16.27
2023-05-10T10:06:29.447Z,16.25
2023-05-10T10:07:24.124Z,16.16
2023-05-10T10:08:46.961Z,16.03
2023-05-10T10:09:22.467Z,16.00
2023-05-10T10:10:22.896Z,15.92
2023-05-10T10:13:48.666Z,16.11
2023-05-10T10:14:45.959Z,16.15
2023-05-10T10:15:45.387Z,16.07
2023-05-10T10:16:59.516Z,16.07
2023-05-10T10:17:49.026Z,16.07
2023-05-10T10:18:47.209Z,15.94
2023-05-10T10:19:47.054Z,15.85
2023-05-10T10:20:47.572Z,15.68
2023-05-10T10:21:49.736Z,15.72
2023-05-10T10:22:48.637Z,15.78
2023-05-10T10:23:47.783Z,15.86
2023-05-10T10:24:47.067Z,15.89
2023-05-10T10:25:47.489Z,15.92
2023-05-10T10:26:48.768Z,15.97
2023-05-10T10:27:48.078Z,15.89
2023-05-10T10:28:50.157Z,15.99
2023-05-10T10:29:49.703Z,16.18
2023-05-10T10:30:48.516Z,16.34
2023-05-10T10:31:51.256Z,16.50
2023-05-10T10:32:50.097Z,16.73
2023-05-10T10:33:51.388Z,16.93
2023-05-10T10:34:52.688Z,17.10
2023-05-10T10:35:50.729Z,17.20
2023-05-10T10:36:52.803Z,17.30
2023-05-10T10:37:58.913Z,17.44
2023-05-10T10:38:52.686Z,17.64
2023-05-10T10:39:50.953Z,17.79
2023-05-10T10:40:50.734Z,17.99
2023-05-10T10:41:56.301Z,18.07
2023-05-10T10:42:52.818Z,18.19
2023-05-10T10:43:51.979Z,18.21
2023-05-10T10:44:51.643Z,18.15
2023-05-10T10:45:52.522Z,18.04
2023-05-10T10:46:59.684Z,17.85
2023-05-10T10:47:53.948Z,17.76
2023-05-10T10:48:52.427Z,17.71
2023-05-10T10:49:54.211Z,17.69
2023-05-10T10:58:27.168Z,17.87
2023-05-10T11:00:56.780Z,17.70
2023-05-10T11:01:56.749Z,17.73
2023-05-10T11:02:56.226Z,17.81
2023-05-10T11:04:00.495Z,17.91
2023-05-10T11:04:58.381Z,18.00
2023-05-10T11:05:59.462Z,18.04
2023-05-10T11:06:57.271Z,18.03
2023-05-10T11:07:55.271Z,18.03
2023-05-10T11:08:58.832Z,18.04
2023-05-10T11:09:55.252Z,18.04
2023-05-10T11:10:57.028Z,17.99
2023-05-10T11:13:57.267Z,17.54
2023-05-10T11:14:57.443Z,17.36
2023-05-10T11:16:00.310Z,17.22
2023-05-10T11:17:06.759Z,17.08
2023-05-10T11:18:03.518Z,16.98
2023-05-10T11:18:58.495Z,16.93
2023-05-10T11:20:17.945Z,16.85
2023-05-10T11:21:01.089Z,16.71
2023-05-10T11:22:00.983Z,16.59
2023-05-10T11:23:45.441Z,16.49
2023-05-10T11:25:16.940Z,16.41
2023-05-10T11:26:06.098Z,16.40
2023-05-10T11:27:04.474Z,16.40
2023-05-10T11:28:14.674Z,16.38
2023-05-10T11:29:04.865Z,16.35
2023-05-10T11:31:05.428Z,16.23
2023-05-10T11:32:05.345Z,16.22
2023-05-10T11:33:06.555Z,16.26
2023-05-10T11:34:06.173Z,16.40
2023-05-10T11:35:04.894Z,16.59
2023-05-10T11:36:11.308Z,16.80
2023-05-10T11:37:06.057Z,17.06
2023-05-10T11:38:09.075Z,17.29
2023-05-10T11:39:06.500Z,17.53
2023-05-10T11:40:07.405Z,17.74
2023-05-10T11:41:12.903Z,17.82
2023-05-10T11:43:06.318Z,18.10
2023-05-10T11:44:08.428Z,18.10
2023-05-10T11:47:08.675Z,17.89
2023-05-10T11:48:09.349Z,17.70
2023-05-10T11:49:10.626Z,17.57
2023-05-10T11:50:19.179Z,17.55
2023-05-10T11:52:09.834Z,17.55
2023-05-10T11:53:08.126Z,17.53
2023-05-10T11:54:10.054Z,17.41
2023-05-10T11:55:10.370Z,17.35
2023-05-10T11:57:12.467Z,17.36
2023-05-10T11:58:11.274Z,17.28
2023-05-10T12:02:12.077Z,17.13
2023-05-10T12:03:12.012Z,17.14
2023-05-10T12:04:11.927Z,17.22
2023-05-10T12:05:13.150Z,17.32
2023-05-10T12:06:12.575Z,17.53
2023-05-10T12:11:27.493Z,18.64
2023-05-10T12:12:17.136Z,18.83
2023-05-10T12:14:26.177Z,19.28
2023-05-10T12:15:15.455Z,19.42
2023-05-10T12:16:22.197Z,19.51
2023-05-10T12:17:16.658Z,19.43
2023-05-10T12:18:19.036Z,19.31
2023-05-10T12:19:17.137Z,19.23
2023-05-10T12:20:31.440Z,19.31
2023-05-10T12:21:14.142Z,19.25
2023-05-10T12:23:19.637Z,19.23
2023-05-10T12:24:15.819Z,19.35
2023-05-10T12:27:21.114Z,19.43
2023-05-10T12:28:21.013Z,19.31
2023-05-10T12:31:17.109Z,19.15
2023-05-10T12:33:17.964Z,19.35
2023-05-10T12:34:27.537Z,19.43
2023-05-10T12:35:23.577Z,19.57
2023-05-10T12:36:18.428Z,19.75
2023-05-10T12:38:23.867Z,19.97
2023-05-10T12:39:17.463Z,20.08
2023-05-10T12:40:20.784Z,20.27
2023-05-10T12:49:30.968Z,22.04
2023-05-10T12:51:23.649Z,22.17
2023-05-10T12:52:23.784Z,22.13
2023-05-10T12:53:21.051Z,22.09
2023-05-10T12:54:21.777Z,22.01
2023-05-10T12:55:22.976Z,22.01
2023-05-10T12:56:25.329Z,22.07
2023-05-10T12:57:24.736Z,22.04
2023-05-10T12:59:22.409Z,21.11
2023-05-10T13:00:25.007Z,20.81
2023-05-10T13:01:23.260Z,20.58
2023-05-10T13:02:24.739Z,20.34
2023-05-10T13:03:25.427Z,20.21
2023-05-10T13:04:23.366Z,20.15
2023-05-10T13:05:23.525Z,20.13
2023-05-10T13:06:23.693Z,20.13
2023-05-10T13:07:23.837Z,20.20
2023-05-10T13:08:23.933Z,20.20
2023-05-10T13:09:24.074Z,20.23
2023-05-10T13:10:24.186Z,20.20
2023-05-10T13:11:27.349Z,20.15
2023-05-10T13:12:24.547Z,20.08
2023-05-10T13:13:25.715Z,20.02
2023-05-10T13:14:24.897Z,19.91
2023-05-10T13:15:25.652Z,19.83
2023-05-10T13:16:25.506Z,19.73
2023-05-10T13:17:25.667Z,19.69
2023-05-10T13:18:29.725Z,19.65
2023-05-10T13:19:25.704Z,19.61
2023-05-10T13:20:25.502Z,19.58
2023-05-10T13:21:26.505Z,19.48
2023-05-10T13:22:39.342Z,19.23
2023-05-10T13:23:26.722Z,18.97
2023-05-10T13:24:26.885Z,18.76
2023-05-10T13:25:26.171Z,18.62
2023-05-10T13:28:27.799Z,18.47
2023-05-10T13:29:28.820Z,18.54
2023-05-10T13:30:29.066Z,18.62
2023-05-10T13:31:28.651Z,18.68
2023-05-10T13:32:28.280Z,18.70
2023-05-10T13:33:27.709Z,18.74
2023-05-10T13:34:28.811Z,18.79
2023-05-10T13:35:28.246Z,18.91
2023-05-10T13:36:29.199Z,19.01
2023-05-10T13:37:28.833Z,19.14
2023-05-10T13:38:30.003Z,19.28
2023-05-10T13:39:29.880Z,19.33
2023-05-10T13:40:29.575Z,19.35
2023-05-10T13:41:30.479Z,19.39
2023-05-10T13:42:31.526Z,19.46
2023-05-10T13:43:31.131Z,19.57
2023-05-10T13:44:32.486Z,19.68
2023-05-10T13:45:30.680Z,19.78
2023-05-10T13:46:32.129Z,19.90
2023-05-10T13:47:31.744Z,20.06
2023-05-10T13:48:31.157Z,20.21
2023-05-10T13:49:33.391Z,20.35
2023-05-10T13:50:32.606Z,20.47
2023-05-10T13:51:31.723Z,20.54
2023-05-10T13:52:31.844Z,20.59
2023-05-10T13:53:34.040Z,20.64
2023-05-10T13:54:32.193Z,20.68
2023-05-10T13:55:32.591Z,20.71
2023-05-10T13:57:06.206Z,20.71
2023-05-10T13:57:35.135Z,20.66